Terminal Aerodrome Forecast
Issued by NWS Charleston, WV

Home | Current Version | Previous Version | Text Only | Print | Product List | Glossary On
Versions: 1 2 3 4 5 6 7 8 9 10 11 12 13 14 15 16 17 18 19 20 21
000
FTUS41 KRLX 290525
TAFBKW
TAF
KBKW 290525Z 2906/3006 00000KT P6SM SCT025
     FM290900 00000KT 6SM BR SCT050
     FM291700 00000KT P6SM BKN025
     FM292000 29004KT P6SM SCT025
     FM300500 VRB03KT P6SM VCTS SCT025CB=

USA.gov is the U.S. government's official web portal to all federal, state and local government web resources and services.